DWI0750 MMSM-MDLR
Flight info
| Callsign | DWI0750 |
|---|---|
| Flight time | 3h 29m |
| Altitude | 41000 |
| Route | LORSU2B LORSU DCT KONLA UJ18 ALPOM UT20 CZA UJ9 CZM UL577 OTELI DCT PETRI PETRI2D |
| Aircraft | B788/H-SDE1E2E3FGHIJ2J3J4J5M1RWXY/LB1D1 |
Departure
| Time | 2026-04-24 11:55 |
|---|---|
| Airport | Felipe Ángeles International Airport (MMSM) |
Arrival
| Time | 2026-04-24 15:25 |
|---|---|
| Airport | Casa De Campo International Airport (MDLR) |
| Time | Latitude | Longitude | Altitude | Speed | Heading |
|---|---|---|---|---|---|
| 2026-04-24 11:23 | 19.73700 | -99.02122 | 7382 ft | 0 kts | 140° |
| 2026-04-24 11:40 | 19.73701 | -99.02122 | 7382 ft | 1 kts | 140° |
| 2026-04-24 11:40 | 19.73718 | -99.02136 | 7382 ft | 3 kts | 150° |
| 2026-04-24 11:40 | 19.73740 | -99.02149 | 7381 ft | 3 kts | 144° |
| 2026-04-24 11:40 | 19.73756 | -99.02163 | 7381 ft | 4 kts | 130° |
| 2026-04-24 11:41 | 19.73768 | -99.02184 | 7381 ft | 4 kts | 96° |
| 2026-04-24 11:41 | 19.73765 | -99.02207 | 7378 ft | 4 kts | 57° |
| 2026-04-24 11:41 | 19.73749 | -99.02227 | 7380 ft | 4 kts | 41° |
| 2026-04-24 11:41 | 19.73731 | -99.02243 | 7382 ft | 4 kts | 45° |
| 2026-04-24 11:42 | 19.73726 | -99.02248 | 7380 ft | 4 kts | 49° |
| 2026-04-24 11:44 | 19.73727 | -99.02248 | 7380 ft | 0 kts | 49° |
| 2026-04-24 11:44 | 19.73732 | -99.02241 | 7382 ft | 2 kts | 49° |
| 2026-04-24 11:44 | 19.73744 | -99.02226 | 7380 ft | 3 kts | 49° |
| 2026-04-24 11:45 | 19.73764 | -99.02202 | 7378 ft | 5 kts | 49° |
| 2026-04-24 11:45 | 19.73791 | -99.02168 | 7383 ft | 8 kts | 49° |
| 2026-04-24 11:45 | 19.73837 | -99.02112 | 7381 ft | 12 kts | 49° |
| 2026-04-24 11:45 | 19.73896 | -99.02039 | 7383 ft | 14 kts | 49° |
| 2026-04-24 11:46 | 19.73965 | -99.01954 | 7383 ft | 16 kts | 49° |
| 2026-04-24 11:46 | 19.74043 | -99.01860 | 7382 ft | 18 kts | 49° |
| 2026-04-24 11:46 | 19.74127 | -99.01756 | 7383 ft | 20 kts | 49° |
| 2026-04-24 11:46 | 19.74187 | -99.01692 | 7383 ft | 10 kts | 26° |
| 2026-04-24 11:47 | 19.74250 | -99.01714 | 7383 ft | 11 kts | 323° |
| 2026-04-24 11:47 | 19.74314 | -99.01773 | 7383 ft | 14 kts | 319° |
| 2026-04-24 11:47 | 19.74398 | -99.01849 | 7383 ft | 18 kts | 319° |
| 2026-04-24 11:47 | 19.74499 | -99.01942 | 7383 ft | 20 kts | 319° |
| 2026-04-24 11:48 | 19.74613 | -99.02045 | 7383 ft | 23 kts | 319° |
| 2026-04-24 11:48 | 19.74676 | -99.02106 | 7381 ft | 8 kts | 307° |
| 2026-04-24 11:48 | 19.74672 | -99.02155 | 7382 ft | 8 kts | 244° |
| 2026-04-24 11:48 | 19.74632 | -99.02211 | 7382 ft | 11 kts | 229° |
| 2026-04-24 11:49 | 19.74575 | -99.02281 | 7382 ft | 14 kts | 229° |
| 2026-04-24 11:49 | 19.74504 | -99.02366 | 7382 ft | 17 kts | 229° |
| 2026-04-24 11:49 | 19.74420 | -99.02469 | 7382 ft | 20 kts | 229° |
| 2026-04-24 11:49 | 19.74325 | -99.02585 | 7383 ft | 22 kts | 229° |
| 2026-04-24 11:50 | 19.74218 | -99.02715 | 7383 ft | 25 kts | 229° |
| 2026-04-24 11:50 | 19.74100 | -99.02859 | 7383 ft | 27 kts | 229° |
| 2026-04-24 11:50 | 19.73971 | -99.03016 | 7382 ft | 29 kts | 229° |
| 2026-04-24 11:50 | 19.73832 | -99.03186 | 7382 ft | 31 kts | 229° |
| 2026-04-24 11:51 | 19.73685 | -99.03366 | 7382 ft | 33 kts | 229° |
| 2026-04-24 11:51 | 19.73531 | -99.03555 | 7383 ft | 34 kts | 229° |
| 2026-04-24 11:51 | 19.73396 | -99.03721 | 7383 ft | 25 kts | 229° |
| 2026-04-24 11:51 | 19.73326 | -99.03806 | 7383 ft | 10 kts | 229° |
| 2026-04-24 11:52 | 19.73318 | -99.03863 | 7383 ft | 5 kts | 302° |
| 2026-04-24 11:52 | 19.73323 | -99.03867 | 7382 ft | 0 kts | 312° |
| 2026-04-24 11:52 | 19.73327 | -99.03872 | 7383 ft | 2 kts | 312° |
| 2026-04-24 11:52 | 19.73343 | -99.03890 | 7382 ft | 5 kts | 314° |
| 2026-04-24 11:53 | 19.73373 | -99.03921 | 7382 ft | 8 kts | 318° |
| 2026-04-24 11:53 | 19.73421 | -99.03932 | 7382 ft | 6 kts | 14° |
| 2026-04-24 11:53 | 19.73457 | -99.03906 | 7382 ft | 6 kts | 43° |
| 2026-04-24 11:53 | 19.73468 | -99.03894 | 7382 ft | 0 kts | 47° |
| 2026-04-24 11:54 | 19.73477 | -99.03884 | 7382 ft | 7 kts | 47° |
| 2026-04-24 11:54 | 19.73583 | -99.03754 | 7383 ft | 51 kts | 49° |
| 2026-04-24 11:54 | 19.73966 | -99.03285 | 7380 ft | 117 kts | 49° |
| 2026-04-24 11:55 | 19.74634 | -99.02469 | 7382 ft | 174 kts | 49° |
| 2026-04-24 11:55 | 19.75529 | -99.01374 | 7573 ft | 210 kts | 51° |
| 2026-04-24 11:55 | 19.76495 | -99.00190 | 8669 ft | 215 kts | 48° |
| 2026-04-24 11:55 | 19.77529 | -98.98934 | 9191 ft | 235 kts | 47° |
| 2026-04-24 11:56 | 19.78598 | -98.97629 | 10074 ft | 238 kts | 47° |
| 2026-04-24 11:56 | 19.79701 | -98.96278 | 10923 ft | 241 kts | 47° |
| 2026-04-24 11:56 | 19.80790 | -98.94945 | 11780 ft | 242 kts | 47° |
| 2026-04-24 11:56 | 19.81778 | -98.93485 | 12583 ft | 248 kts | 67° |
| 2026-04-24 11:57 | 19.81992 | -98.91678 | 13459 ft | 249 kts | 94° |
| 2026-04-24 11:57 | 19.81770 | -98.89848 | 14277 ft | 251 kts | 97° |
| 2026-04-24 11:57 | 19.81503 | -98.88002 | 14972 ft | 255 kts | 97° |
| 2026-04-24 11:57 | 19.81245 | -98.86117 | 15672 ft | 259 kts | 96° |
| 2026-04-24 11:58 | 19.80998 | -98.84210 | 16364 ft | 263 kts | 96° |
| 2026-04-24 11:58 | 19.80749 | -98.82295 | 17039 ft | 267 kts | 96° |
| 2026-04-24 11:58 | 19.80488 | -98.80328 | 17732 ft | 271 kts | 95° |
| 2026-04-24 11:58 | 19.80223 | -98.78330 | 18417 ft | 275 kts | 95° |
| 2026-04-24 11:59 | 19.79954 | -98.76300 | 19004 ft | 280 kts | 95° |
| 2026-04-24 11:59 | 19.79674 | -98.74170 | 19245 ft | 306 kts | 95° |
| 2026-04-24 11:59 | 19.79364 | -98.71810 | 19374 ft | 337 kts | 96° |
| 2026-04-24 11:59 | 19.79023 | -98.69265 | 19862 ft | 351 kts | 96° |
| 2026-04-24 12:00 | 19.78677 | -98.66689 | 20690 ft | 355 kts | 96° |
| 2026-04-24 12:00 | 19.78303 | -98.64069 | 21414 ft | 362 kts | 100° |
| 2026-04-24 12:00 | 19.77613 | -98.61504 | 22144 ft | 368 kts | 103° |
| 2026-04-24 12:00 | 19.76953 | -98.58857 | 22897 ft | 373 kts | 102° |
| 2026-04-24 12:01 | 19.76293 | -98.56173 | 23638 ft | 378 kts | 103° |
| 2026-04-24 12:01 | 19.75590 | -98.53470 | 24263 ft | 383 kts | 104° |
| 2026-04-24 12:01 | 19.74869 | -98.50739 | 24877 ft | 387 kts | 104° |
| 2026-04-24 12:01 | 19.74151 | -98.47963 | 25463 ft | 391 kts | 103° |
| 2026-04-24 12:02 | 19.73433 | -98.45159 | 26067 ft | 396 kts | 103° |
| 2026-04-24 12:02 | 19.72699 | -98.42323 | 26680 ft | 400 kts | 104° |
| 2026-04-24 12:02 | 19.71955 | -98.39463 | 27263 ft | 405 kts | 104° |
| 2026-04-24 12:02 | 19.71246 | -98.36556 | 27840 ft | 408 kts | 97° |
| 2026-04-24 12:03 | 19.71088 | -98.33577 | 28390 ft | 410 kts | 88° |
| 2026-04-24 12:03 | 19.71040 | -98.30529 | 28933 ft | 415 kts | 89° |
| 2026-04-24 12:03 | 19.70997 | -98.27444 | 29520 ft | 420 kts | 89° |
| 2026-04-24 12:03 | 19.70953 | -98.24333 | 30088 ft | 424 kts | 89° |
| 2026-04-24 12:04 | 19.70905 | -98.21186 | 30566 ft | 429 kts | 89° |
| 2026-04-24 12:04 | 19.70855 | -98.18009 | 31048 ft | 432 kts | 89° |
| 2026-04-24 12:04 | 19.70806 | -98.14802 | 31535 ft | 436 kts | 89° |
| 2026-04-24 12:04 | 19.70757 | -98.11609 | 32001 ft | 440 kts | 89° |
| 2026-04-24 12:05 | 19.70706 | -98.08349 | 32454 ft | 444 kts | 89° |
| 2026-04-24 12:05 | 19.70653 | -98.05019 | 32921 ft | 447 kts | 89° |
| 2026-04-24 12:05 | 19.70600 | -98.01743 | 33357 ft | 451 kts | 89° |
| 2026-04-24 12:05 | 19.70701 | -97.98407 | 33773 ft | 453 kts | 84° |
| 2026-04-24 12:06 | 19.70900 | -97.95057 | 34152 ft | 458 kts | 84° |
| 2026-04-24 12:06 | 19.71079 | -97.91673 | 34549 ft | 460 kts | 84° |
| 2026-04-24 12:06 | 19.71268 | -97.88274 | 34930 ft | 462 kts | 84° |
| 2026-04-24 12:06 | 19.71471 | -97.84858 | 35306 ft | 465 kts | 84° |
| 2026-04-24 12:07 | 19.71669 | -97.81421 | 35664 ft | 468 kts | 84° |
| 2026-04-24 12:07 | 19.71862 | -97.77949 | 36061 ft | 470 kts | 84° |
| 2026-04-24 12:07 | 19.72054 | -97.74486 | 36441 ft | 472 kts | 84° |
| 2026-04-24 12:07 | 19.72250 | -97.71037 | 36763 ft | 474 kts | 84° |
| 2026-04-24 12:08 | 19.72448 | -97.67533 | 37089 ft | 477 kts | 84° |
| 2026-04-24 12:08 | 19.72643 | -97.64015 | 37442 ft | 479 kts | 84° |
| 2026-04-24 12:08 | 19.72837 | -97.60500 | 37763 ft | 481 kts | 84° |
| 2026-04-24 12:08 | 19.73034 | -97.56939 | 38109 ft | 482 kts | 84° |
| 2026-04-24 12:09 | 19.73232 | -97.53382 | 38433 ft | 484 kts | 84° |
| 2026-04-24 12:09 | 19.73429 | -97.49799 | 38717 ft | 486 kts | 84° |
| 2026-04-24 12:09 | 19.73625 | -97.46205 | 38961 ft | 489 kts | 84° |
| 2026-04-24 12:09 | 19.73822 | -97.42596 | 39189 ft | 491 kts | 84° |
| 2026-04-24 12:10 | 19.74019 | -97.38972 | 39418 ft | 493 kts | 84° |
| 2026-04-24 12:10 | 19.74214 | -97.35376 | 39631 ft | 495 kts | 84° |
| 2026-04-24 12:10 | 19.74412 | -97.31712 | 39850 ft | 497 kts | 84° |
| 2026-04-24 12:11 | 19.74807 | -97.24344 | 40263 ft | 501 kts | 84° |
| 2026-04-24 12:11 | 19.75005 | -97.20639 | 40456 ft | 504 kts | 84° |
| 2026-04-24 12:11 | 19.75202 | -97.16919 | 40654 ft | 505 kts | 84° |
| 2026-04-24 12:12 | 19.75599 | -97.09406 | 40942 ft | 511 kts | 85° |
| 2026-04-24 12:12 | 19.75999 | -97.01805 | 40930 ft | 520 kts | 85° |
| 2026-04-24 12:13 | 19.76396 | -96.94128 | 40912 ft | 526 kts | 85° |
| 2026-04-24 12:13 | 19.76799 | -96.86309 | 40908 ft | 527 kts | 85° |
| 2026-04-24 12:14 | 19.77195 | -96.78578 | 40874 ft | 528 kts | 85° |
| 2026-04-24 12:14 | 19.77591 | -96.70780 | 40865 ft | 528 kts | 85° |
| 2026-04-24 12:15 | 19.77979 | -96.63014 | 40840 ft | 526 kts | 85° |
| 2026-04-24 12:15 | 19.78368 | -96.55248 | 40838 ft | 527 kts | 85° |
| 2026-04-24 12:16 | 19.78751 | -96.47466 | 40819 ft | 527 kts | 85° |
| 2026-04-24 12:16 | 19.79133 | -96.39676 | 40818 ft | 527 kts | 85° |
| 2026-04-24 12:17 | 19.79509 | -96.31903 | 40804 ft | 527 kts | 85° |
| 2026-04-24 12:17 | 19.79883 | -96.24133 | 40803 ft | 526 kts | 85° |
| 2026-04-24 12:18 | 19.80253 | -96.16368 | 40797 ft | 526 kts | 85° |
| 2026-04-24 12:18 | 19.80617 | -96.08651 | 40802 ft | 525 kts | 85° |
| 2026-04-24 12:19 | 19.80980 | -96.00897 | 40802 ft | 525 kts | 85° |
| 2026-04-24 12:19 | 19.81279 | -95.94455 | 40801 ft | 525 kts | 85° |
| 2026-04-24 12:20 | 19.81634 | -95.86718 | 40801 ft | 524 kts | 85° |
| 2026-04-24 12:20 | 19.81987 | -95.78970 | 40800 ft | 524 kts | 85° |
| 2026-04-24 12:21 | 19.82334 | -95.71278 | 40800 ft | 526 kts | 85° |
| 2026-04-24 12:21 | 19.82683 | -95.63476 | 40814 ft | 529 kts | 84° |
| 2026-04-24 12:22 | 19.83028 | -95.55657 | 40814 ft | 529 kts | 84° |
| 2026-04-24 12:22 | 19.83371 | -95.47846 | 40818 ft | 529 kts | 84° |
| 2026-04-24 12:23 | 19.83710 | -95.40029 | 40816 ft | 529 kts | 85° |
| 2026-04-24 12:23 | 19.84045 | -95.32211 | 40822 ft | 529 kts | 84° |
| 2026-04-24 12:24 | 19.84375 | -95.24465 | 40810 ft | 528 kts | 84° |
| 2026-04-24 12:24 | 19.84702 | -95.16674 | 40814 ft | 528 kts | 84° |
| 2026-04-24 12:25 | 19.85027 | -95.08877 | 40809 ft | 527 kts | 84° |
| 2026-04-24 12:25 | 19.85347 | -95.01105 | 40809 ft | 526 kts | 84° |
| 2026-04-24 12:26 | 19.85663 | -94.93340 | 40815 ft | 526 kts | 84° |
| 2026-04-24 12:26 | 19.85978 | -94.85553 | 40818 ft | 529 kts | 84° |
| 2026-04-24 12:27 | 19.86289 | -94.77746 | 40821 ft | 530 kts | 84° |
| 2026-04-24 12:27 | 19.86598 | -94.69911 | 40826 ft | 530 kts | 84° |
| 2026-04-24 12:28 | 19.86903 | -94.62099 | 40822 ft | 530 kts | 84° |
| 2026-04-24 12:28 | 19.87203 | -94.54317 | 40826 ft | 530 kts | 84° |
| 2026-04-24 12:29 | 19.87502 | -94.46480 | 40830 ft | 531 kts | 84° |
| 2026-04-24 12:29 | 19.87798 | -94.38621 | 40832 ft | 532 kts | 84° |
| 2026-04-24 12:30 | 19.88090 | -94.30779 | 40830 ft | 530 kts | 84° |
| 2026-04-24 12:30 | 19.88378 | -94.22956 | 40827 ft | 529 kts | 84° |
| 2026-04-24 12:31 | 19.88661 | -94.15160 | 40832 ft | 528 kts | 84° |
| 2026-04-24 12:31 | 19.88944 | -94.07334 | 40836 ft | 530 kts | 84° |
| 2026-04-24 12:32 | 19.89222 | -93.99487 | 40832 ft | 532 kts | 84° |
| 2026-04-24 12:32 | 19.89497 | -93.91635 | 40835 ft | 531 kts | 84° |
| 2026-04-24 12:33 | 19.89767 | -93.83847 | 40833 ft | 530 kts | 84° |
| 2026-04-24 12:33 | 19.90035 | -93.76006 | 40829 ft | 531 kts | 84° |
| 2026-04-24 12:34 | 19.90300 | -93.68159 | 40831 ft | 531 kts | 84° |
| 2026-04-24 12:34 | 19.90561 | -93.60302 | 40833 ft | 532 kts | 84° |
| 2026-04-24 12:35 | 19.91045 | -93.52480 | 40861 ft | 526 kts | 74° |
| 2026-04-24 12:35 | 19.92973 | -93.45067 | 40831 ft | 523 kts | 69° |
| 2026-04-24 12:36 | 19.95040 | -93.37667 | 40836 ft | 521 kts | 69° |
| 2026-04-24 12:36 | 19.97090 | -93.30274 | 40838 ft | 520 kts | 69° |
| 2026-04-24 12:37 | 19.99136 | -93.22901 | 40836 ft | 519 kts | 69° |
| 2026-04-24 12:37 | 20.01180 | -93.15515 | 40838 ft | 521 kts | 69° |
| 2026-04-24 12:38 | 20.03229 | -93.08097 | 40836 ft | 523 kts | 69° |
| 2026-04-24 12:38 | 20.05250 | -93.00767 | 40841 ft | 523 kts | 69° |
| 2026-04-24 12:39 | 20.09327 | -92.85944 | 40838 ft | 520 kts | 69° |
| 2026-04-24 12:40 | 20.11351 | -92.78567 | 40837 ft | 520 kts | 69° |
| 2026-04-24 12:40 | 20.13387 | -92.71136 | 40852 ft | 524 kts | 69° |
| 2026-04-24 12:41 | 20.15424 | -92.63678 | 40848 ft | 524 kts | 69° |
| 2026-04-24 12:41 | 20.17456 | -92.56233 | 40846 ft | 523 kts | 69° |
| 2026-04-24 12:42 | 20.19465 | -92.48854 | 40842 ft | 521 kts | 69° |
| 2026-04-24 12:42 | 20.21488 | -92.41417 | 40844 ft | 523 kts | 69° |
| 2026-04-24 12:43 | 20.23507 | -92.33975 | 40846 ft | 524 kts | 69° |
| 2026-04-24 12:43 | 20.25524 | -92.26511 | 40863 ft | 525 kts | 69° |
| 2026-04-24 12:44 | 20.27546 | -92.19021 | 40862 ft | 526 kts | 69° |
| 2026-04-24 12:44 | 20.29549 | -92.11581 | 40862 ft | 525 kts | 69° |
| 2026-04-24 12:45 | 20.31557 | -92.04116 | 40860 ft | 524 kts | 69° |
| 2026-04-24 12:45 | 20.33563 | -91.96651 | 40856 ft | 522 kts | 69° |
| 2026-04-24 12:46 | 20.35559 | -91.89210 | 40860 ft | 522 kts | 69° |
| 2026-04-24 12:46 | 20.37552 | -91.81769 | 40861 ft | 522 kts | 69° |
| 2026-04-24 12:47 | 20.39535 | -91.74350 | 40864 ft | 524 kts | 69° |
| 2026-04-24 12:47 | 20.41531 | -91.66867 | 40870 ft | 525 kts | 69° |
| 2026-04-24 12:48 | 20.43527 | -91.59368 | 40869 ft | 525 kts | 69° |
| 2026-04-24 12:48 | 20.45520 | -91.51870 | 40870 ft | 524 kts | 69° |
| 2026-04-24 12:49 | 20.47500 | -91.44406 | 40863 ft | 524 kts | 69° |
| 2026-04-24 12:49 | 20.49476 | -91.36945 | 40865 ft | 526 kts | 69° |
| 2026-04-24 12:50 | 20.51461 | -91.29432 | 40859 ft | 526 kts | 69° |
| 2026-04-24 12:50 | 20.53444 | -91.21915 | 40874 ft | 527 kts | 69° |
| 2026-04-24 12:51 | 20.55425 | -91.14389 | 40868 ft | 527 kts | 69° |
| 2026-04-24 12:51 | 20.57400 | -91.06874 | 40881 ft | 525 kts | 69° |
| 2026-04-24 12:52 | 20.59366 | -90.99377 | 40875 ft | 524 kts | 69° |
| 2026-04-24 12:52 | 20.61325 | -90.91896 | 40867 ft | 523 kts | 69° |
| 2026-04-24 12:53 | 20.63282 | -90.84408 | 40873 ft | 525 kts | 69° |
| 2026-04-24 12:53 | 20.65242 | -90.76883 | 40885 ft | 526 kts | 69° |
| 2026-04-24 12:54 | 20.67188 | -90.69401 | 40881 ft | 525 kts | 69° |
| 2026-04-24 12:54 | 20.69128 | -90.61931 | 40878 ft | 524 kts | 69° |
| 2026-04-24 12:55 | 20.70252 | -90.54185 | 40923 ft | 537 kts | 87° |
| 2026-04-24 12:55 | 20.70095 | -90.46196 | 40887 ft | 538 kts | 87° |
| 2026-04-24 12:56 | 20.69891 | -90.38212 | 40893 ft | 537 kts | 87° |
| 2026-04-24 12:56 | 20.69716 | -90.30229 | 40893 ft | 537 kts | 87° |
| 2026-04-24 12:57 | 20.69516 | -90.22265 | 40894 ft | 536 kts | 87° |
| 2026-04-24 12:57 | 20.69327 | -90.14292 | 40902 ft | 538 kts | 87° |
| 2026-04-24 12:58 | 20.69123 | -90.06287 | 40903 ft | 539 kts | 87° |
| 2026-04-24 12:58 | 20.68923 | -89.98332 | 40921 ft | 540 kts | 87° |
| 2026-04-24 12:59 | 20.68714 | -89.90334 | 40905 ft | 537 kts | 87° |
| 2026-04-24 12:59 | 20.68506 | -89.82354 | 40899 ft | 536 kts | 87° |
| 2026-04-24 13:00 | 20.68292 | -89.74394 | 40896 ft | 536 kts | 87° |
| 2026-04-24 13:00 | 20.68075 | -89.66408 | 40900 ft | 538 kts | 87° |
| 2026-04-24 13:01 | 20.67852 | -89.58389 | 40909 ft | 540 kts | 87° |
| 2026-04-24 13:01 | 20.67628 | -89.50426 | 40911 ft | 538 kts | 87° |
| 2026-04-24 13:02 | 20.67399 | -89.42445 | 40909 ft | 537 kts | 87° |
| 2026-04-24 13:02 | 20.67167 | -89.34479 | 40909 ft | 536 kts | 87° |
| 2026-04-24 13:03 | 20.66932 | -89.26529 | 40909 ft | 535 kts | 87° |
| 2026-04-24 13:03 | 20.66734 | -89.19906 | 40923 ft | 537 kts | 87° |
| 2026-04-24 13:04 | 20.66492 | -89.11926 | 40925 ft | 538 kts | 87° |
| 2026-04-24 13:04 | 20.66245 | -89.03922 | 40929 ft | 540 kts | 87° |
| 2026-04-24 13:05 | 20.65993 | -88.95912 | 40931 ft | 538 kts | 87° |
| 2026-04-24 13:05 | 20.65739 | -88.87925 | 40932 ft | 537 kts | 87° |
| 2026-04-24 13:06 | 20.65484 | -88.80005 | 40921 ft | 536 kts | 87° |
| 2026-04-24 13:06 | 20.65224 | -88.72050 | 40928 ft | 535 kts | 87° |
| 2026-04-24 13:07 | 20.64960 | -88.64090 | 40924 ft | 536 kts | 87° |
| 2026-04-24 13:07 | 20.64692 | -88.56118 | 40928 ft | 538 kts | 87° |
| 2026-04-24 13:08 | 20.64420 | -88.48129 | 40936 ft | 539 kts | 87° |
| 2026-04-24 13:08 | 20.63894 | -88.40132 | 40939 ft | 541 kts | 90° |
| 2026-04-24 13:09 | 20.62904 | -88.28135 | 40938 ft | 540 kts | 91° |
| 2026-04-24 13:09 | 20.62222 | -88.20200 | 40939 ft | 540 kts | 90° |
| 2026-04-24 13:10 | 20.61548 | -88.12228 | 40941 ft | 539 kts | 90° |
| 2026-04-24 13:10 | 20.60858 | -88.04254 | 40941 ft | 539 kts | 90° |
| 2026-04-24 13:11 | 20.60178 | -87.96335 | 40940 ft | 539 kts | 90° |
| 2026-04-24 13:11 | 20.59485 | -87.88361 | 40940 ft | 540 kts | 90° |
| 2026-04-24 13:12 | 20.58792 | -87.80382 | 40941 ft | 540 kts | 90° |
| 2026-04-24 13:12 | 20.58093 | -87.72443 | 40945 ft | 540 kts | 90° |
| 2026-04-24 13:13 | 20.57385 | -87.64466 | 40942 ft | 540 kts | 90° |
| 2026-04-24 13:13 | 20.56675 | -87.56492 | 40938 ft | 539 kts | 90° |
| 2026-04-24 13:14 | 20.55962 | -87.48531 | 40939 ft | 539 kts | 90° |
| 2026-04-24 13:14 | 20.55246 | -87.40568 | 40945 ft | 538 kts | 91° |
| 2026-04-24 13:15 | 20.54526 | -87.32609 | 40951 ft | 538 kts | 90° |
| 2026-04-24 13:15 | 20.53810 | -87.24654 | 40943 ft | 539 kts | 91° |
| 2026-04-24 13:16 | 20.53085 | -87.16690 | 40946 ft | 539 kts | 91° |
| 2026-04-24 13:16 | 20.52360 | -87.08729 | 40941 ft | 539 kts | 91° |
| 2026-04-24 13:17 | 20.51634 | -87.00821 | 40942 ft | 539 kts | 91° |
| 2026-04-24 13:17 | 20.50900 | -86.92858 | 40935 ft | 539 kts | 91° |
| 2026-04-24 13:18 | 20.49509 | -86.84951 | 40935 ft | 544 kts | 98° |
| 2026-04-24 13:18 | 20.47948 | -86.77059 | 40943 ft | 544 kts | 98° |
| 2026-04-24 13:19 | 20.46377 | -86.69158 | 40942 ft | 544 kts | 98° |
| 2026-04-24 13:19 | 20.44807 | -86.61268 | 40940 ft | 545 kts | 98° |
| 2026-04-24 13:20 | 20.43230 | -86.53375 | 40939 ft | 543 kts | 98° |
| 2026-04-24 13:20 | 20.41663 | -86.45545 | 40933 ft | 541 kts | 98° |
| 2026-04-24 13:21 | 20.40084 | -86.37676 | 40930 ft | 541 kts | 98° |
| 2026-04-24 13:21 | 20.38512 | -86.29862 | 40931 ft | 542 kts | 98° |
| 2026-04-24 13:22 | 20.36923 | -86.21986 | 40931 ft | 544 kts | 98° |
| 2026-04-24 13:22 | 20.35329 | -86.14097 | 40943 ft | 545 kts | 98° |
| 2026-04-24 13:23 | 20.33728 | -86.06202 | 40945 ft | 545 kts | 98° |
| 2026-04-24 13:23 | 20.32124 | -85.98304 | 40939 ft | 543 kts | 98° |
| 2026-04-24 13:24 | 20.30523 | -85.90441 | 40938 ft | 542 kts | 98° |
| 2026-04-24 13:24 | 20.28932 | -85.82646 | 40939 ft | 542 kts | 98° |
| 2026-04-24 13:25 | 20.27328 | -85.74809 | 40931 ft | 542 kts | 98° |
| 2026-04-24 13:25 | 20.25717 | -85.66950 | 40932 ft | 543 kts | 98° |
| 2026-04-24 13:26 | 20.24099 | -85.59084 | 40938 ft | 544 kts | 99° |
| 2026-04-24 13:26 | 20.22473 | -85.51192 | 40940 ft | 545 kts | 99° |
| 2026-04-24 13:27 | 20.20842 | -85.43296 | 40945 ft | 546 kts | 99° |
| 2026-04-24 13:27 | 20.19208 | -85.35402 | 40942 ft | 545 kts | 99° |
| 2026-04-24 13:28 | 20.17546 | -85.27569 | 40941 ft | 545 kts | 99° |
| 2026-04-24 13:28 | 20.15842 | -85.19708 | 40941 ft | 544 kts | 99° |
| 2026-04-24 13:29 | 20.14161 | -85.11852 | 40946 ft | 544 kts | 99° |
| 2026-04-24 13:29 | 20.12460 | -85.04007 | 40961 ft | 544 kts | 99° |
| 2026-04-24 13:30 | 20.10764 | -84.96140 | 40948 ft | 545 kts | 99° |
| 2026-04-24 13:30 | 20.09054 | -84.88268 | 40948 ft | 546 kts | 99° |
| 2026-04-24 13:31 | 20.07354 | -84.80437 | 40949 ft | 546 kts | 99° |
| 2026-04-24 13:31 | 20.05637 | -84.72560 | 40931 ft | 546 kts | 99° |
| 2026-04-24 13:32 | 20.03923 | -84.64705 | 40955 ft | 544 kts | 100° |
| 2026-04-24 13:32 | 20.02205 | -84.56851 | 40956 ft | 546 kts | 100° |
| 2026-04-24 13:33 | 20.00480 | -84.48985 | 40955 ft | 547 kts | 100° |
| 2026-04-24 13:33 | 19.98746 | -84.41092 | 40958 ft | 548 kts | 100° |
| 2026-04-24 13:34 | 19.97006 | -84.33194 | 40954 ft | 547 kts | 100° |
| 2026-04-24 13:34 | 19.95284 | -84.25391 | 40951 ft | 545 kts | 100° |
| 2026-04-24 13:35 | 19.93549 | -84.17548 | 40953 ft | 545 kts | 100° |
| 2026-04-24 13:35 | 19.91810 | -84.09707 | 40959 ft | 545 kts | 100° |
| 2026-04-24 13:36 | 19.90065 | -84.01854 | 40956 ft | 545 kts | 100° |
| 2026-04-24 13:36 | 19.88318 | -83.94007 | 40951 ft | 546 kts | 100° |
| 2026-04-24 13:37 | 19.86566 | -83.86153 | 40956 ft | 546 kts | 100° |
| 2026-04-24 13:37 | 19.84816 | -83.78334 | 40958 ft | 546 kts | 100° |
| 2026-04-24 13:38 | 19.83057 | -83.70484 | 40956 ft | 546 kts | 100° |
| 2026-04-24 13:38 | 19.81290 | -83.62615 | 40957 ft | 547 kts | 100° |
| 2026-04-24 13:39 | 19.79521 | -83.54759 | 40959 ft | 547 kts | 101° |
| 2026-04-24 13:39 | 19.77761 | -83.46961 | 40957 ft | 545 kts | 101° |
| 2026-04-24 13:40 | 19.75994 | -83.39142 | 40956 ft | 544 kts | 101° |
| 2026-04-24 13:40 | 19.74224 | -83.31331 | 40956 ft | 544 kts | 101° |
| 2026-04-24 13:41 | 19.72449 | -83.23513 | 40956 ft | 545 kts | 101° |
| 2026-04-24 13:41 | 19.70669 | -83.15688 | 40969 ft | 545 kts | 101° |
| 2026-04-24 13:42 | 19.68887 | -83.07876 | 40965 ft | 543 kts | 102° |
| 2026-04-24 13:42 | 19.67110 | -83.00097 | 40963 ft | 542 kts | 102° |
| 2026-04-24 13:43 | 19.65330 | -82.92322 | 40955 ft | 541 kts | 102° |
| 2026-04-24 13:43 | 19.63556 | -82.84592 | 40958 ft | 542 kts | 102° |
| 2026-04-24 13:44 | 19.61776 | -82.76846 | 40970 ft | 543 kts | 103° |
| 2026-04-24 13:44 | 19.59982 | -82.69066 | 40971 ft | 543 kts | 103° |
| 2026-04-24 13:45 | 19.58182 | -82.61270 | 40972 ft | 544 kts | 103° |
| 2026-04-24 13:45 | 19.56378 | -82.53472 | 40973 ft | 544 kts | 103° |
| 2026-04-24 13:46 | 19.54570 | -82.45676 | 40970 ft | 545 kts | 103° |
| 2026-04-24 13:46 | 19.52759 | -82.37873 | 40962 ft | 545 kts | 104° |
| 2026-04-24 13:47 | 19.51244 | -82.31376 | 40968 ft | 545 kts | 104° |
| 2026-04-24 13:47 | 19.49424 | -82.23570 | 40970 ft | 546 kts | 104° |
| 2026-04-24 13:48 | 19.47599 | -82.15761 | 40968 ft | 545 kts | 104° |
| 2026-04-24 13:48 | 19.45775 | -82.07974 | 40966 ft | 544 kts | 104° |
| 2026-04-24 13:49 | 19.44344 | -82.00115 | 40964 ft | 543 kts | 98° |
| 2026-04-24 13:49 | 19.43237 | -81.92187 | 40967 ft | 543 kts | 98° |
| 2026-04-24 13:50 | 19.42105 | -81.84315 | 40973 ft | 544 kts | 99° |
| 2026-04-24 13:50 | 19.40977 | -81.76384 | 40974 ft | 544 kts | 98° |
| 2026-04-24 13:51 | 19.39839 | -81.68462 | 40975 ft | 544 kts | 99° |
| 2026-04-24 13:51 | 19.38701 | -81.60531 | 40969 ft | 546 kts | 99° |
| 2026-04-24 13:52 | 19.37550 | -81.52569 | 40973 ft | 547 kts | 99° |
| 2026-04-24 13:52 | 19.36400 | -81.44612 | 40974 ft | 546 kts | 99° |
| 2026-04-24 13:53 | 19.35244 | -81.36650 | 40973 ft | 546 kts | 100° |
| 2026-04-24 13:53 | 19.34087 | -81.28697 | 40973 ft | 546 kts | 100° |
| 2026-04-24 13:54 | 19.32930 | -81.20778 | 40966 ft | 549 kts | 101° |
| 2026-04-24 13:54 | 19.31759 | -81.12787 | 40967 ft | 549 kts | 101° |
| 2026-04-24 13:55 | 19.30582 | -81.04777 | 40969 ft | 549 kts | 101° |
| 2026-04-24 13:55 | 19.29403 | -80.96784 | 40969 ft | 549 kts | 101° |
| 2026-04-24 13:56 | 19.28224 | -80.88800 | 40961 ft | 549 kts | 101° |
| 2026-04-24 13:56 | 19.27043 | -80.80848 | 40962 ft | 551 kts | 102° |
| 2026-04-24 13:57 | 19.25850 | -80.72823 | 40964 ft | 551 kts | 102° |
| 2026-04-24 13:57 | 19.24655 | -80.64823 | 40962 ft | 550 kts | 102° |
| 2026-04-24 13:58 | 19.23458 | -80.56826 | 40967 ft | 548 kts | 102° |
| 2026-04-24 13:58 | 19.22264 | -80.48863 | 40969 ft | 549 kts | 102° |
| 2026-04-24 13:59 | 19.21056 | -80.40861 | 40973 ft | 550 kts | 102° |
| 2026-04-24 13:59 | 19.19854 | -80.32885 | 40975 ft | 553 kts | 103° |
| 2026-04-24 14:00 | 19.18631 | -80.24833 | 40975 ft | 553 kts | 103° |
| 2026-04-24 14:00 | 19.17412 | -80.16793 | 40973 ft | 553 kts | 103° |
| 2026-04-24 14:01 | 19.16187 | -80.08772 | 40972 ft | 552 kts | 103° |
| 2026-04-24 14:01 | 19.14969 | -80.00796 | 40974 ft | 552 kts | 103° |
| 2026-04-24 14:02 | 19.13739 | -79.92777 | 40972 ft | 552 kts | 103° |
| 2026-04-24 14:02 | 19.12507 | -79.84766 | 40970 ft | 552 kts | 103° |
| 2026-04-24 14:03 | 19.11273 | -79.76766 | 40975 ft | 550 kts | 104° |
| 2026-04-24 14:03 | 19.10036 | -79.68775 | 40970 ft | 549 kts | 104° |
| 2026-04-24 14:04 | 19.08798 | -79.60792 | 40972 ft | 549 kts | 104° |
| 2026-04-24 14:04 | 19.07560 | -79.52838 | 40974 ft | 548 kts | 104° |
| 2026-04-24 14:05 | 19.06323 | -79.44920 | 40973 ft | 550 kts | 104° |
| 2026-04-24 14:05 | 19.05075 | -79.36943 | 40985 ft | 549 kts | 104° |
| 2026-04-24 14:06 | 19.03826 | -79.28984 | 40990 ft | 547 kts | 104° |
| 2026-04-24 14:06 | 19.02575 | -79.21046 | 40993 ft | 548 kts | 104° |
| 2026-04-24 14:07 | 19.01320 | -79.13092 | 40986 ft | 549 kts | 104° |
| 2026-04-24 14:07 | 19.00058 | -79.05119 | 40987 ft | 551 kts | 104° |
| 2026-04-24 14:08 | 18.98790 | -78.97133 | 40994 ft | 551 kts | 104° |
| 2026-04-24 14:08 | 18.97527 | -78.89203 | 40989 ft | 550 kts | 104° |
| 2026-04-24 14:09 | 18.96257 | -78.81245 | 40987 ft | 549 kts | 104° |
| 2026-04-24 14:09 | 18.94984 | -78.73295 | 40986 ft | 548 kts | 104° |
| 2026-04-24 14:10 | 18.93710 | -78.65364 | 40991 ft | 548 kts | 104° |
| 2026-04-24 14:10 | 18.92428 | -78.57404 | 40992 ft | 552 kts | 104° |
| 2026-04-24 14:11 | 18.91145 | -78.49457 | 40990 ft | 552 kts | 104° |
| 2026-04-24 14:12 | 18.89191 | -78.37402 | 40994 ft | 552 kts | 104° |
| 2026-04-24 14:12 | 18.87899 | -78.29456 | 40993 ft | 552 kts | 104° |
| 2026-04-24 14:13 | 18.86596 | -78.21463 | 40994 ft | 552 kts | 104° |
| 2026-04-24 14:13 | 18.85291 | -78.13481 | 40990 ft | 552 kts | 104° |
| 2026-04-24 14:14 | 18.83981 | -78.05495 | 40990 ft | 552 kts | 104° |
| 2026-04-24 14:14 | 18.82010 | -77.93519 | 40980 ft | 552 kts | 104° |
| 2026-04-24 14:15 | 18.80696 | -77.85554 | 40980 ft | 553 kts | 104° |
| 2026-04-24 14:15 | 18.79367 | -77.77523 | 40985 ft | 553 kts | 104° |
| 2026-04-24 14:16 | 18.78048 | -77.69582 | 40987 ft | 552 kts | 104° |
| 2026-04-24 14:17 | 18.76055 | -77.57612 | 40980 ft | 550 kts | 104° |
| 2026-04-24 14:17 | 18.74067 | -77.45729 | 40985 ft | 550 kts | 105° |
| 2026-04-24 14:18 | 18.72729 | -77.37752 | 40989 ft | 551 kts | 105° |
| 2026-04-24 14:18 | 18.71391 | -77.29804 | 40989 ft | 551 kts | 105° |
| 2026-04-24 14:19 | 18.70044 | -77.21819 | 40968 ft | 551 kts | 105° |
| 2026-04-24 14:19 | 18.68701 | -77.13876 | 40984 ft | 550 kts | 105° |
| 2026-04-24 14:20 | 18.67353 | -77.05927 | 40978 ft | 549 kts | 105° |
| 2026-04-24 14:20 | 18.66014 | -76.98050 | 40977 ft | 547 kts | 104° |
| 2026-04-24 14:21 | 18.64668 | -76.90158 | 40964 ft | 547 kts | 105° |
| 2026-04-24 14:21 | 18.63320 | -76.82269 | 40978 ft | 546 kts | 104° |
| 2026-04-24 14:22 | 18.61971 | -76.74398 | 40975 ft | 544 kts | 105° |
| 2026-04-24 14:23 | 18.59949 | -76.62638 | 40977 ft | 546 kts | 105° |
| 2026-04-24 14:23 | 18.58587 | -76.54739 | 40981 ft | 548 kts | 105° |
| 2026-04-24 14:24 | 18.57219 | -76.46832 | 40974 ft | 548 kts | 105° |
| 2026-04-24 14:24 | 18.55850 | -76.38931 | 40974 ft | 547 kts | 105° |
| 2026-04-24 14:25 | 18.54713 | -76.32387 | 40973 ft | 545 kts | 105° |
| 2026-04-24 14:25 | 18.53114 | -76.23208 | 40970 ft | 544 kts | 105° |
| 2026-04-24 14:26 | 18.51753 | -76.15417 | 40975 ft | 544 kts | 105° |
| 2026-04-24 14:26 | 18.50375 | -76.07557 | 40982 ft | 546 kts | 105° |
| 2026-04-24 14:27 | 18.48989 | -75.99673 | 40994 ft | 548 kts | 105° |
| 2026-04-24 14:27 | 18.47599 | -75.91774 | 40998 ft | 547 kts | 105° |
| 2026-04-24 14:28 | 18.46208 | -75.83903 | 40997 ft | 546 kts | 105° |
| 2026-04-24 14:28 | 18.44823 | -75.76080 | 40988 ft | 545 kts | 105° |
| 2026-04-24 14:29 | 18.43429 | -75.68228 | 40986 ft | 544 kts | 105° |
| 2026-04-24 14:29 | 18.42036 | -75.60393 | 40987 ft | 544 kts | 105° |
| 2026-04-24 14:30 | 18.40869 | -75.53857 | 40989 ft | 545 kts | 105° |
| 2026-04-24 14:30 | 18.39233 | -75.44700 | 40993 ft | 547 kts | 105° |
| 2026-04-24 14:31 | 18.37825 | -75.36844 | 40996 ft | 546 kts | 105° |
| 2026-04-24 14:31 | 18.36414 | -75.28993 | 40993 ft | 543 kts | 105° |
| 2026-04-24 14:32 | 18.35012 | -75.21215 | 40991 ft | 544 kts | 105° |
| 2026-04-24 14:32 | 18.33599 | -75.13383 | 40992 ft | 545 kts | 105° |
| 2026-04-24 14:33 | 18.32416 | -75.06848 | 40999 ft | 546 kts | 105° |
| 2026-04-24 14:33 | 18.31678 | -74.98865 | 41019 ft | 553 kts | 88° |
| 2026-04-24 14:34 | 18.32998 | -74.90842 | 41010 ft | 557 kts | 80° |
| 2026-04-24 14:34 | 18.34560 | -74.82907 | 41004 ft | 557 kts | 80° |
| 2026-04-24 14:35 | 18.36108 | -74.74918 | 41006 ft | 557 kts | 80° |
| 2026-04-24 14:35 | 18.37659 | -74.66937 | 41005 ft | 556 kts | 80° |
| 2026-04-24 14:36 | 18.39205 | -74.58955 | 41008 ft | 556 kts | 80° |
| 2026-04-24 14:36 | 18.40750 | -74.50955 | 41008 ft | 556 kts | 80° |
| 2026-04-24 14:37 | 18.42291 | -74.42966 | 41006 ft | 556 kts | 81° |
| 2026-04-24 14:37 | 18.43814 | -74.35042 | 41002 ft | 555 kts | 81° |
| 2026-04-24 14:38 | 18.45345 | -74.27060 | 41026 ft | 556 kts | 81° |
| 2026-04-24 14:38 | 18.46885 | -74.19013 | 41017 ft | 557 kts | 81° |
| 2026-04-24 14:39 | 18.48403 | -74.11068 | 41020 ft | 557 kts | 81° |
| 2026-04-24 14:39 | 18.49925 | -74.03077 | 41012 ft | 556 kts | 81° |
| 2026-04-24 14:40 | 18.51443 | -73.95084 | 41013 ft | 556 kts | 81° |
| 2026-04-24 14:40 | 18.52964 | -73.87066 | 41019 ft | 558 kts | 81° |
| 2026-04-24 14:41 | 18.54482 | -73.79040 | 41014 ft | 558 kts | 81° |
| 2026-04-24 14:41 | 18.55996 | -73.71016 | 41014 ft | 558 kts | 81° |
| 2026-04-24 14:42 | 18.57505 | -73.63002 | 41006 ft | 557 kts | 81° |
| 2026-04-24 14:42 | 18.58998 | -73.55045 | 41005 ft | 556 kts | 81° |
| 2026-04-24 14:43 | 18.60498 | -73.47041 | 41002 ft | 556 kts | 81° |
| 2026-04-24 14:43 | 18.61992 | -73.39045 | 41000 ft | 555 kts | 81° |
| 2026-04-24 14:44 | 18.63482 | -73.31048 | 40994 ft | 557 kts | 81° |
| 2026-04-24 14:44 | 18.64978 | -73.23006 | 40999 ft | 559 kts | 81° |
| 2026-04-24 14:45 | 18.66472 | -73.14951 | 41002 ft | 559 kts | 81° |
| 2026-04-24 14:45 | 18.67961 | -73.06902 | 41018 ft | 559 kts | 81° |
| 2026-04-24 14:46 | 18.69439 | -72.98894 | 41010 ft | 560 kts | 81° |
| 2026-04-24 14:46 | 18.70927 | -72.90812 | 40993 ft | 560 kts | 81° |
| 2026-04-24 14:47 | 18.72412 | -72.82729 | 40992 ft | 559 kts | 81° |
| 2026-04-24 14:47 | 18.73888 | -72.74671 | 40989 ft | 559 kts | 81° |
| 2026-04-24 14:48 | 18.75361 | -72.66612 | 40984 ft | 558 kts | 81° |
| 2026-04-24 14:48 | 18.76815 | -72.58634 | 40985 ft | 557 kts | 81° |
| 2026-04-24 14:49 | 18.78278 | -72.50586 | 40992 ft | 560 kts | 81° |
| 2026-04-24 14:49 | 18.79743 | -72.42506 | 40996 ft | 561 kts | 81° |
| 2026-04-24 14:50 | 18.81207 | -72.34416 | 41003 ft | 561 kts | 81° |
| 2026-04-24 14:50 | 18.82667 | -72.26325 | 40996 ft | 560 kts | 82° |
| 2026-04-24 14:51 | 18.84118 | -72.18264 | 40987 ft | 559 kts | 82° |
| 2026-04-24 14:51 | 18.85567 | -72.10191 | 40991 ft | 559 kts | 82° |
| 2026-04-24 14:52 | 18.87013 | -72.02111 | 40985 ft | 560 kts | 82° |
| 2026-04-24 14:52 | 18.88450 | -71.94068 | 41001 ft | 560 kts | 82° |
| 2026-04-24 14:53 | 18.89890 | -71.85983 | 41004 ft | 561 kts | 82° |
| 2026-04-24 14:53 | 18.91327 | -71.77895 | 41007 ft | 561 kts | 82° |
| 2026-04-24 14:54 | 18.92767 | -71.69769 | 41015 ft | 561 kts | 82° |
| 2026-04-24 14:54 | 18.94199 | -71.61662 | 41016 ft | 561 kts | 82° |
| 2026-04-24 14:55 | 18.95388 | -71.54923 | 41016 ft | 561 kts | 82° |
| 2026-04-24 14:55 | 18.97054 | -71.45445 | 41017 ft | 562 kts | 82° |
| 2026-04-24 14:56 | 18.98478 | -71.37324 | 41016 ft | 562 kts | 82° |
| 2026-04-24 14:56 | 18.99898 | -71.29203 | 41015 ft | 560 kts | 82° |
| 2026-04-24 14:57 | 19.01313 | -71.21093 | 41026 ft | 562 kts | 82° |
| 2026-04-24 14:57 | 19.02725 | -71.12975 | 41044 ft | 560 kts | 82° |
| 2026-04-24 14:58 | 19.04130 | -71.04876 | 41031 ft | 557 kts | 82° |
| 2026-04-24 14:58 | 19.04827 | -71.00850 | 40166 ft | 560 kts | 82° |
| 2026-04-24 14:58 | 19.05528 | -70.96787 | 39250 ft | 564 kts | 83° |
| 2026-04-24 14:58 | 19.06233 | -70.92709 | 38320 ft | 566 kts | 83° |
| 2026-04-24 14:59 | 19.06943 | -70.88586 | 37347 ft | 568 kts | 82° |
| 2026-04-24 14:59 | 19.07650 | -70.84477 | 36358 ft | 570 kts | 82° |
| 2026-04-24 14:59 | 19.08350 | -70.80407 | 35368 ft | 572 kts | 82° |
| 2026-04-24 14:59 | 19.09074 | -70.76195 | 34333 ft | 575 kts | 82° |
| 2026-04-24 15:00 | 19.09775 | -70.72105 | 33219 ft | 576 kts | 81° |
| 2026-04-24 15:00 | 19.10493 | -70.67908 | 32334 ft | 572 kts | 81° |
| 2026-04-24 15:00 | 19.11206 | -70.63749 | 31596 ft | 564 kts | 81° |
| 2026-04-24 15:00 | 19.11891 | -70.59744 | 30893 ft | 557 kts | 81° |
| 2026-04-24 15:01 | 19.12572 | -70.55739 | 30209 ft | 549 kts | 81° |
| 2026-04-24 15:01 | 19.13244 | -70.51791 | 29461 ft | 542 kts | 80° |
| 2026-04-24 15:01 | 19.13907 | -70.47903 | 28710 ft | 534 kts | 81° |
| 2026-04-24 15:01 | 19.14560 | -70.44063 | 27972 ft | 527 kts | 81° |
| 2026-04-24 15:02 | 19.15202 | -70.40272 | 27233 ft | 520 kts | 81° |
| 2026-04-24 15:02 | 19.15834 | -70.36540 | 26520 ft | 513 kts | 81° |
| 2026-04-24 15:02 | 19.16459 | -70.32848 | 25815 ft | 506 kts | 81° |
| 2026-04-24 15:02 | 19.17075 | -70.29209 | 25113 ft | 499 kts | 81° |
| 2026-04-24 15:03 | 19.17477 | -70.26822 | 24660 ft | 495 kts | 81° |
| 2026-04-24 15:03 | 19.18280 | -70.22062 | 23760 ft | 487 kts | 81° |
| 2026-04-24 15:03 | 19.18869 | -70.18560 | 22986 ft | 481 kts | 81° |
| 2026-04-24 15:03 | 19.19451 | -70.15095 | 22207 ft | 474 kts | 81° |
| 2026-04-24 15:04 | 19.20025 | -70.11679 | 21433 ft | 468 kts | 81° |
| 2026-04-24 15:04 | 19.20590 | -70.08309 | 20690 ft | 462 kts | 81° |
| 2026-04-24 15:04 | 19.21147 | -70.04984 | 19950 ft | 456 kts | 81° |
| 2026-04-24 15:04 | 19.21693 | -70.01731 | 19824 ft | 436 kts | 81° |
| 2026-04-24 15:05 | 19.22208 | -69.98655 | 19807 ft | 413 kts | 81° |
| 2026-04-24 15:05 | 19.22691 | -69.95764 | 19780 ft | 394 kts | 81° |
| 2026-04-24 15:05 | 19.23155 | -69.92980 | 19736 ft | 376 kts | 81° |
| 2026-04-24 15:05 | 19.23605 | -69.90273 | 19274 ft | 373 kts | 81° |
| 2026-04-24 15:06 | 19.24053 | -69.87579 | 18840 ft | 369 kts | 81° |
| 2026-04-24 15:06 | 19.24497 | -69.84914 | 18396 ft | 366 kts | 80° |
| 2026-04-24 15:06 | 19.24937 | -69.82272 | 17948 ft | 362 kts | 80° |
| 2026-04-24 15:06 | 19.25372 | -69.79657 | 17456 ft | 358 kts | 80° |
| 2026-04-24 15:07 | 19.25800 | -69.77072 | 17010 ft | 354 kts | 80° |
| 2026-04-24 15:07 | 19.26210 | -69.74515 | 16543 ft | 350 kts | 83° |
| 2026-04-24 15:07 | 19.26094 | -69.72012 | 16081 ft | 343 kts | 106° |
| 2026-04-24 15:07 | 19.25147 | -69.69741 | 15632 ft | 335 kts | 128° |
| 2026-04-24 15:08 | 19.23561 | -69.67993 | 15163 ft | 327 kts | 142° |
| 2026-04-24 15:08 | 19.21815 | -69.66457 | 14703 ft | 324 kts | 143° |
| 2026-04-24 15:08 | 19.20065 | -69.64966 | 14266 ft | 322 kts | 143° |
| 2026-04-24 15:08 | 19.18333 | -69.63480 | 13832 ft | 319 kts | 142° |
| 2026-04-24 15:09 | 19.16630 | -69.61997 | 13362 ft | 316 kts | 142° |
| 2026-04-24 15:09 | 19.14938 | -69.60527 | 12867 ft | 313 kts | 142° |
| 2026-04-24 15:09 | 19.13259 | -69.59075 | 12374 ft | 310 kts | 142° |
| 2026-04-24 15:09 | 19.11592 | -69.57636 | 11886 ft | 308 kts | 142° |
| 2026-04-24 15:10 | 19.09941 | -69.56208 | 11389 ft | 305 kts | 142° |
| 2026-04-24 15:10 | 19.08302 | -69.54790 | 10901 ft | 302 kts | 142° |
| 2026-04-24 15:10 | 19.06700 | -69.53405 | 10438 ft | 300 kts | 142° |
| 2026-04-24 15:10 | 19.05092 | -69.52017 | 10015 ft | 296 kts | 142° |
| 2026-04-24 15:11 | 19.03515 | -69.50654 | 9727 ft | 288 kts | 142° |
| 2026-04-24 15:11 | 19.01966 | -69.49315 | 9736 ft | 291 kts | 142° |
| 2026-04-24 15:11 | 19.00393 | -69.47957 | 9729 ft | 291 kts | 142° |
| 2026-04-24 15:11 | 18.98823 | -69.46602 | 9735 ft | 292 kts | 142° |
| 2026-04-24 15:12 | 18.97244 | -69.45239 | 9750 ft | 293 kts | 142° |
| 2026-04-24 15:12 | 18.94091 | -69.42520 | 9736 ft | 293 kts | 142° |
| 2026-04-24 15:12 | 18.92547 | -69.41160 | 9744 ft | 293 kts | 141° |
| 2026-04-24 15:13 | 18.91002 | -69.39763 | 9749 ft | 293 kts | 141° |
| 2026-04-24 15:13 | 18.89448 | -69.38369 | 9747 ft | 293 kts | 141° |
| 2026-04-24 15:13 | 18.87888 | -69.36985 | 9748 ft | 293 kts | 141° |
| 2026-04-24 15:13 | 18.86326 | -69.35597 | 9748 ft | 293 kts | 141° |
| 2026-04-24 15:14 | 18.84764 | -69.34206 | 9749 ft | 293 kts | 141° |
| 2026-04-24 15:14 | 18.83205 | -69.32817 | 9747 ft | 293 kts | 141° |
| 2026-04-24 15:14 | 18.81648 | -69.31432 | 9747 ft | 292 kts | 141° |
| 2026-04-24 15:14 | 18.80092 | -69.30047 | 9746 ft | 292 kts | 141° |
| 2026-04-24 15:15 | 18.78559 | -69.28684 | 9188 ft | 290 kts | 141° |
| 2026-04-24 15:15 | 18.77016 | -69.27312 | 8691 ft | 288 kts | 141° |
| 2026-04-24 15:15 | 18.75495 | -69.25960 | 8203 ft | 284 kts | 141° |
| 2026-04-24 15:15 | 18.74003 | -69.24634 | 7703 ft | 282 kts | 141° |
| 2026-04-24 15:16 | 18.72444 | -69.23393 | 7193 ft | 279 kts | 144° |
| 2026-04-24 15:16 | 18.70948 | -69.22118 | 6871 ft | 266 kts | 141° |
| 2026-04-24 15:16 | 18.69596 | -69.20939 | 6547 ft | 242 kts | 142° |
| 2026-04-24 15:16 | 18.68701 | -69.20191 | 6123 ft | 245 kts | 143° |
| 2026-04-24 15:17 | 18.67386 | -69.19120 | 5899 ft | 239 kts | 143° |
| 2026-04-24 15:17 | 18.66074 | -69.18040 | 5489 ft | 240 kts | 142° |
| 2026-04-24 15:17 | 18.64767 | -69.16953 | 5171 ft | 237 kts | 142° |
| 2026-04-24 15:17 | 18.63474 | -69.15880 | 4817 ft | 237 kts | 142° |
| 2026-04-24 15:18 | 18.62186 | -69.14814 | 4492 ft | 233 kts | 142° |
| 2026-04-24 15:18 | 18.60923 | -69.13768 | 3947 ft | 231 kts | 142° |
| 2026-04-24 15:18 | 18.59660 | -69.12722 | 3455 ft | 229 kts | 142° |
| 2026-04-24 15:18 | 18.58455 | -69.11725 | 3398 ft | 209 kts | 142° |
| 2026-04-24 15:19 | 18.57362 | -69.10821 | 3378 ft | 191 kts | 142° |
| 2026-04-24 15:19 | 18.56355 | -69.09986 | 3342 ft | 177 kts | 142° |
| 2026-04-24 15:19 | 18.55401 | -69.09199 | 3119 ft | 174 kts | 142° |
| 2026-04-24 15:19 | 18.54448 | -69.08420 | 2846 ft | 172 kts | 144° |
| 2026-04-24 15:20 | 18.53359 | -69.08105 | 2714 ft | 162 kts | 180° |
| 2026-04-24 15:20 | 18.52192 | -69.08240 | 2768 ft | 174 kts | 186° |
| 2026-04-24 15:20 | 18.50983 | -69.08403 | 2759 ft | 175 kts | 186° |
| 2026-04-24 15:20 | 18.49790 | -69.08561 | 2675 ft | 173 kts | 186° |
| 2026-04-24 15:21 | 18.48586 | -69.08648 | 2466 ft | 173 kts | 174° |
| 2026-04-24 15:21 | 18.47556 | -69.08039 | 2198 ft | 172 kts | 136° |
| 2026-04-24 15:21 | 18.47062 | -69.06898 | 1894 ft | 175 kts | 101° |
| 2026-04-24 15:21 | 18.46935 | -69.05637 | 1752 ft | 170 kts | 97° |
| 2026-04-24 15:22 | 18.46809 | -69.04413 | 1766 ft | 168 kts | 98° |
| 2026-04-24 15:22 | 18.46667 | -69.03175 | 1762 ft | 173 kts | 99° |
| 2026-04-24 15:22 | 18.46518 | -69.01923 | 1765 ft | 172 kts | 99° |
| 2026-04-24 15:23 | 18.46228 | -68.99382 | 1603 ft | 178 kts | 97° |
| 2026-04-24 15:23 | 18.45922 | -68.96782 | 1112 ft | 179 kts | 103° |
| 2026-04-24 15:23 | 18.45734 | -68.95485 | 819 ft | 179 kts | 99° |
| 2026-04-24 15:24 | 18.45320 | -68.91712 | 235 ft | 149 kts | 102° |
| 2026-04-24 15:25 | 18.45167 | -68.90466 | 227 ft | 47 kts | 96° |
| 2026-04-24 15:25 | 18.45095 | -68.89871 | 225 ft | 15 kts | 102° |
| 2026-04-24 15:26 | 18.45085 | -68.89789 | 224 ft | 4 kts | 339° |
| 2026-04-24 15:27 | 18.45129 | -68.90139 | 229 ft | 36 kts | 275° |
| 2026-04-24 15:27 | 18.45230 | -68.90980 | 227 ft | 26 kts | 277° |
| 2026-04-24 15:28 | 18.45074 | -68.91159 | 226 ft | 12 kts | 187° |
| 2026-04-24 15:29 | 18.44989 | -68.91196 | 226 ft | 6 kts | 195° |
| 2026-04-24 15:30 | 18.44937 | -68.91202 | 226 ft | 0 kts | 186° |